Погода Уиттьена неделю

Калифорния, США

01 - 07 сентября
  • 01сентября
    Сегодня
    +17°
    +30°
    Ясно и безоблачно
    ВремяПогодаТемператураВлажностьДавлениеВетер, м/сВероятность осадков
    02:00Ясно и безоблачно+18°C75 %751 мм1.2 м/с2 %
    05:00Ясно и безоблачно+17°C82 %751 мм0.6 м/с2 %
    08:00Ясно и безоблачно+19°C76 %752 мм0.3 м/с2 %
    11:00Ясно и безоблачно+24°C47 %752 мм2.2 м/с2 %
    14:00Ясно и безоблачно+29°C34 %751 мм3.4 м/с2 %
    17:00Ясно и безоблачно+28°C36 %750 мм4.1 м/с2 %
    20:00Ясно и безоблачно+23°C54 %750 мм3.1 м/с2 %
    23:00Ясно и безоблачно+20°C69 %752 мм1.7 м/с2 %
  • 02сентября
    Среда
    +18°
    +30°
    Ясно и безоблачно
    ВремяПогодаТемператураВлажностьДавлениеВетер, м/сВероятность осадков
    02:00Ясно и безоблачно+19°C74 %752 мм0.8 м/с2 %
    05:00Ясно и безоблачно+18°C79 %751 мм0.3 м/с2 %
    08:00Ясно и безоблачно+19°C68 %752 мм0.1 м/с2 %
    11:00Ясно и безоблачно+24°C46 %752 мм2.0 м/с2 %
    14:00Ясно и безоблачно+29°C30 %751 мм3.2 м/с2 %
    17:00Ясно и безоблачно+29°C31 %750 мм4.3 м/с2 %
    20:00Ясно и безоблачно+24°C47 %750 мм3.2 м/с2 %
    23:00Ясно и безоблачно+22°C54 %751 мм1.6 м/с2 %
  • 03сентября
    Четверг
    +18°
    +30°
    Ясно и безоблачно
    ВремяПогодаТемператураВлажностьДавлениеВетер, м/сВероятность осадков
    02:00Ясно и безоблачно+20°C67 %751 мм0.9 м/с2 %
    05:00Ясно и безоблачно+18°C71 %750 мм0.3 м/с2 %
    08:00Практически безоблачно+20°C72 %751 мм0.4 м/с2 %
    11:00Ясно и безоблачно+24°C46 %751 мм2.3 м/с2 %
    14:00Ясно и безоблачно+29°C37 %749 мм3.6 м/с2 %
    17:00Ясно и безоблачно+28°C42 %748 мм4.2 м/с2 %
    20:00Ясно и безоблачно+24°C59 %748 мм3.4 м/с2 %
    23:00Ясно и безоблачно+22°C67 %749 мм1.9 м/с2 %
  • 04сентября
    Пятница
    +18°
    +31°
    Ясно и безоблачно
    ВремяПогодаТемператураВлажностьДавлениеВетер, м/сВероятность осадков
    02:00Ясно и безоблачно+20°C79 %749 мм1.3 м/с2 %
    05:00Ясно и безоблачно+19°C86 %749 мм0.4 м/с2 %
    08:00Ясно и безоблачно+20°C75 %750 мм0.0 м/с2 %
    11:00Ясно и безоблачно+25°C49 %750 мм1.6 м/с2 %
    14:00Ясно и безоблачно+30°C32 %749 мм3.3 м/с2 %
    17:00Ясно и безоблачно+30°C31 %749 мм3.9 м/с2 %
    20:00Ясно и безоблачно+25°C58 %749 мм3.4 м/с2 %
    23:00Ясно и безоблачно+22°C70 %750 мм1.9 м/с2 %
  • 05сентября
    Суббота
    +21°
    +33°
    Ясно и безоблачно
    ВремяПогодаТемператураВлажностьДавлениеВетер, м/сВероятность осадков
    02:00Ясно и безоблачно+20°C82 %750 мм1.1 м/с2 %
    05:00Ясно и безоблачно+19°C84 %749 мм0.6 м/с6 %
    08:00Ясно и безоблачно+21°C68 %751 мм0.0 м/с13 %
    11:00Ясно и безоблачно+27°C36 %750 мм1.7 м/с14 %
    14:00Ясно и безоблачно+32°C22 %749 мм3.3 м/с18 %
    17:00Ясно и безоблачно+32°C23 %749 мм4.1 м/с22 %
    20:00Ясно и безоблачно+27°C50 %749 мм3.5 м/с19 %
    23:00Ясно и безоблачно+25°C61 %750 мм1.9 м/с18 %
  • 06сентября
    Воскресенье
    +19°
    +33°
    Ясно и безоблачно
    ВремяПогодаТемператураВлажностьДавлениеВетер, м/сВероятность осадков
    05:00Практически безоблачно+22°C77 %749 мм0.5 м/с30 %
    11:00Ясно и безоблачно+28°C48 %750 мм1.3 м/с34 %
    17:00Ясно и безоблачно+32°C47 %748 мм3.1 м/с31 %
    23:00Ясно и безоблачно+23°C61 %750 мм1.6 м/с24 %
  • 07сентября
    Понедельник
    +17°
    +32°
    Ясно и безоблачно
    ВремяПогодаТемператураВлажностьДавлениеВетер, м/сВероятность осадков
    05:00Ясно и безоблачно+19°C75 %749 мм1.4 м/с18 %
    11:00Ясно и безоблачно+28°C40 %750 мм2.3 м/с24 %
    17:00Ясно и безоблачно+29°C34 %748 мм3.9 м/с18 %
    23:00Ясно и безоблачно+21°C69 %749 мм1.7 м/с15 %
Мы используем cookies
Соглашаюсь